createdAt,value
2022-10-10T00:02:53.897Z,43.58
2022-10-10T00:05:55.004Z,46.85
2022-10-10T00:08:55.928Z,43.85
2022-10-10T00:11:56.833Z,40.50
2022-10-10T00:14:57.555Z,44.15
2022-10-10T00:17:58.998Z,40.03
2022-10-10T00:21:00.375Z,48.97
2022-10-10T00:24:01.157Z,44.88
2022-10-10T00:27:01.890Z,46.58
2022-10-10T00:30:05.612Z,47.78
2022-10-10T00:33:06.580Z,45.75
2022-10-10T00:36:07.906Z,39.55
2022-10-10T00:39:08.658Z,39.25
2022-10-10T00:42:14.280Z,32.33
2022-10-10T00:45:36.364Z,38.05
2022-10-10T00:48:45.380Z,36.00
2022-10-10T00:51:51.220Z,37.55
2022-10-10T00:54:52.264Z,32.45
2022-10-10T00:57:53.533Z,38.22
2022-10-10T01:00:55.606Z,41.17
2022-10-10T01:04:02.272Z,33.80
2022-10-10T01:07:12.776Z,34.97
2022-10-10T01:10:19.380Z,38.97
2022-10-10T01:13:46.743Z,33.15
2022-10-10T01:20:19.114Z,37.47
2022-10-10T01:23:41.906Z,34.10
2022-10-10T01:27:35.322Z,33.65
2022-10-10T01:30:36.996Z,38.08
2022-10-10T01:34:12.040Z,35.28
2022-10-10T01:37:50.756Z,34.95
2022-10-10T01:41:06.972Z,34.10
2022-10-10T01:44:07.993Z,37.25
2022-10-10T01:47:12.296Z,34.78
2022-10-10T01:50:19.906Z,38.05
2022-10-10T01:53:38.195Z,30.73
2022-10-10T02:00:10.257Z,31.27
2022-10-10T02:03:29.561Z,31.73
2022-10-10T02:06:49.598Z,32.42
2022-10-10T02:09:53.704Z,32.15
2022-10-10T02:12:58.813Z,28.33
2022-10-10T02:16:04.917Z,27.50
2022-10-10T02:19:16.052Z,28.27
2022-10-10T02:22:19.473Z,28.95
2022-10-10T02:25:35.763Z,28.65
2022-10-10T02:28:57.963Z,34.85
2022-10-10T02:32:07.364Z,33.67
2022-10-10T02:35:16.817Z,38.25
2022-10-10T02:38:20.519Z,33.22
2022-10-10T02:41:23.507Z,33.25
2022-10-10T02:44:26.428Z,32.17
2022-10-10T02:47:27.785Z,30.98
2022-10-10T02:50:30.980Z,32.28
2022-10-10T02:53:32.165Z,31.77
2022-10-10T02:56:33.043Z,31.73
2022-10-10T02:59:34.688Z,31.75
2022-10-10T03:02:35.724Z,33.55
2022-10-10T03:05:36.773Z,28.35
2022-10-10T03:08:40.723Z,34.05
2022-10-10T03:11:41.651Z,33.05
2022-10-10T03:14:42.410Z,37.63
2022-10-10T03:17:43.943Z,36.00
2022-10-10T03:20:47.146Z,36.05
2022-10-10T03:23:48.390Z,36.63
2022-10-10T03:26:49.191Z,36.22
2022-10-10T03:29:50.041Z,35.50
2022-10-10T03:32:50.916Z,32.70
2022-10-10T03:35:52.102Z,32.95
2022-10-10T03:38:52.883Z,35.00
2022-10-10T03:41:53.708Z,34.95
2022-10-10T03:44:55.081Z,38.85
2022-10-10T03:47:56.168Z,39.67
2022-10-10T03:50:57.013Z,43.15
2022-10-10T03:53:57.788Z,39.53
2022-10-10T03:56:59.074Z,34.83
2022-10-10T03:59:59.849Z,32.03
2022-10-10T04:03:00.937Z,35.17
2022-10-10T04:06:01.889Z,38.42
2022-10-10T04:09:05.503Z,42.05
2022-10-10T04:12:06.451Z,38.72
2022-10-10T04:15:08.456Z,40.60
2022-10-10T04:18:09.593Z,38.40
2022-10-10T04:21:11.557Z,37.22
2022-10-10T04:24:12.431Z,40.28
2022-10-10T04:27:13.237Z,42.72
2022-10-10T04:30:14.503Z,37.72
2022-10-10T04:33:15.179Z,29.40
2022-10-10T04:36:16.381Z,27.50
2022-10-10T04:39:17.174Z,27.60
2022-10-10T04:42:17.957Z,28.98
2022-10-10T04:45:19.530Z,26.15
2022-10-10T04:48:20.525Z,24.88
2022-10-10T04:51:21.092Z,22.85
2022-10-10T04:54:21.912Z,25.33
2022-10-10T04:57:23.062Z,21.75
2022-10-10T05:00:24.222Z,28.35
2022-10-10T05:03:26.184Z,23.30
2022-10-10T05:06:27.216Z,21.90
2022-10-10T05:09:28.185Z,22.08
2022-10-10T05:12:29.041Z,25.80
2022-10-10T05:15:29.815Z,28.08
2022-10-10T05:18:30.490Z,21.75
2022-10-10T05:21:31.827Z,23.30
2022-10-10T05:24:32.393Z,19.20
2022-10-10T05:27:33.186Z,22.90
2022-10-10T05:30:33.982Z,22.85
2022-10-10T05:33:35.593Z,25.08
2022-10-10T05:36:36.902Z,22.20
2022-10-10T05:39:37.666Z,25.38
2022-10-10T05:42:39.055Z,27.73
2022-10-10T05:45:39.938Z,30.20
2022-10-10T05:48:40.727Z,23.58
2022-10-10T05:51:41.512Z,26.88
2022-10-10T05:54:42.743Z,26.30
2022-10-10T05:57:43.504Z,37.53
2022-10-10T06:00:46.839Z,50.47
2022-10-10T06:03:52.883Z,36.42
2022-10-10T06:06:54.204Z,32.38
2022-10-10T06:09:55.055Z,38.53
2022-10-10T06:12:56.026Z,32.10
2022-10-10T06:15:56.828Z,33.20
2022-10-10T06:18:57.671Z,40.85
2022-10-10T06:21:58.373Z,29.50
2022-10-10T06:24:59.127Z,29.10
2022-10-10T06:28:00.738Z,30.80
2022-10-10T06:31:06.240Z,29.23
2022-10-10T06:34:07.813Z,25.40
2022-10-10T06:37:08.983Z,20.13
2022-10-10T06:40:10.802Z,35.40
2022-10-10T06:43:14.136Z,25.65
2022-10-10T06:46:15.425Z,28.77
2022-10-10T06:49:16.704Z,27.35
2022-10-10T06:52:17.592Z,22.38
2022-10-10T06:55:18.738Z,29.30
2022-10-10T06:58:19.482Z,26.10
2022-10-10T07:01:22.782Z,28.20
2022-10-10T07:04:23.953Z,34.88
2022-10-10T07:07:24.783Z,34.72
2022-10-10T07:10:26.132Z,29.88
2022-10-10T07:13:27.065Z,29.88
2022-10-10T07:16:28.143Z,27.63
2022-10-10T07:19:29.319Z,39.05
2022-10-10T07:22:30.335Z,36.65
2022-10-10T07:25:31.826Z,33.15
2022-10-10T07:28:34.263Z,35.47
2022-10-10T07:31:35.492Z,32.35
2022-10-10T07:34:37.474Z,34.13
2022-10-10T07:37:39.717Z,32.10
2022-10-10T07:40:41.739Z,36.20
2022-10-10T07:43:42.673Z,35.28
2022-10-10T07:46:43.425Z,39.25
2022-10-10T07:49:44.201Z,33.00
2022-10-10T07:52:44.841Z,34.28
2022-10-10T07:55:46.153Z,35.72
2022-10-10T07:58:47.101Z,33.05
2022-10-10T08:01:47.866Z,29.05
2022-10-10T08:04:49.110Z,28.38
2022-10-10T08:07:50.002Z,34.38
2022-10-10T08:10:51.489Z,26.88
2022-10-10T08:13:52.145Z,20.33
2022-10-10T08:16:53.390Z,22.70
2022-10-10T08:19:54.127Z,24.63
2022-10-10T08:22:55.216Z,21.48
2022-10-10T08:26:00.540Z,22.00
2022-10-10T08:29:01.684Z,21.33
2022-10-10T08:32:02.761Z,19.17
2022-10-10T08:35:03.748Z,18.25
2022-10-10T08:38:05.206Z,19.65
2022-10-10T08:41:27.747Z,17.75
2022-10-10T08:44:44.059Z,19.42
2022-10-10T08:48:00.166Z,19.48
2022-10-10T08:51:17.926Z,15.52
2022-10-10T08:54:22.627Z,17.25
2022-10-10T08:57:33.581Z,21.42
2022-10-10T09:00:43.540Z,15.63
2022-10-10T09:03:54.842Z,14.65
2022-10-10T09:07:36.476Z,15.15
2022-10-10T09:11:21.108Z,14.70
2022-10-10T09:15:03.619Z,14.40
2022-10-10T09:18:20.394Z,16.77
2022-10-10T09:21:28.570Z,13.70
2022-10-10T09:24:48.021Z,14.75
2022-10-10T09:28:13.404Z,15.38
2022-10-10T09:31:33.338Z,13.05
2022-10-10T09:34:47.911Z,16.83
2022-10-10T09:38:21.618Z,13.38
2022-10-10T09:41:45.258Z,12.95
2022-10-10T09:44:46.611Z,14.20
2022-10-10T09:47:53.368Z,13.93
2022-10-10T09:50:54.441Z,11.90
2022-10-10T09:53:55.353Z,12.75
2022-10-10T09:56:58.742Z,13.55
2022-10-10T10:00:03.695Z,15.32
2022-10-10T10:03:18.979Z,16.25
2022-10-10T10:06:20.417Z,13.80
2022-10-10T10:09:23.653Z,12.98
2022-10-10T10:12:37.588Z,12.57
2022-10-10T10:15:38.739Z,12.07
2022-10-10T10:18:46.570Z,15.90
2022-10-10T10:21:51.586Z,10.55
2022-10-10T10:24:53.339Z,11.13
2022-10-10T10:28:11.043Z,10.40
2022-10-10T10:31:42.747Z,9.25
2022-10-10T10:34:51.636Z,14.05
2022-10-10T10:38:21.006Z,10.70
2022-10-10T10:41:37.031Z,9.55
2022-10-10T10:45:01.663Z,9.40
2022-10-10T10:48:29.357Z,8.90
2022-10-10T10:51:43.742Z,9.65
2022-10-10T10:55:22.748Z,10.95
2022-10-10T10:59:16.069Z,16.25
2022-10-10T11:02:43.605Z,15.10
2022-10-10T11:06:08.748Z,16.75
2022-10-10T11:09:49.053Z,14.70
2022-10-10T11:13:06.227Z,14.63
2022-10-10T11:16:30.279Z,15.05
2022-10-10T11:19:44.341Z,14.52
2022-10-10T11:23:07.946Z,14.15
2022-10-10T11:26:26.642Z,14.40
2022-10-10T11:29:48.443Z,14.00
2022-10-10T11:33:20.000Z,12.52
2022-10-10T11:36:32.083Z,12.23
2022-10-10T11:39:54.589Z,10.40
2022-10-10T11:43:06.413Z,11.50
2022-10-10T11:46:36.912Z,10.93
2022-10-10T11:50:15.476Z,10.68
2022-10-10T11:53:43.016Z,9.25
2022-10-10T11:56:46.688Z,10.52
2022-10-10T11:59:58.071Z,10.18
2022-10-10T12:02:59.010Z,11.05
2022-10-10T12:06:11.853Z,10.07
2022-10-10T12:09:37.577Z,9.93
2022-10-10T12:12:46.544Z,9.77
2022-10-10T12:15:54.447Z,6.63
2022-10-10T12:19:07.233Z,9.52
2022-10-10T12:22:18.913Z,10.95
2022-10-10T12:25:45.327Z,8.70
2022-10-10T12:32:19.270Z,5.90
2022-10-10T12:35:40.298Z,5.63
2022-10-10T12:39:01.087Z,7.25
2022-10-10T12:42:02.055Z,11.25
2022-10-10T12:45:03.245Z,8.73
2022-10-10T12:48:22.076Z,8.38
2022-10-10T12:51:24.620Z,8.25
2022-10-10T12:54:33.723Z,6.25
2022-10-10T12:57:43.421Z,6.53
2022-10-10T13:00:47.745Z,7.88
2022-10-10T13:03:50.734Z,10.73
2022-10-10T13:06:58.316Z,10.65
2022-10-10T13:10:09.358Z,11.05
2022-10-10T13:13:20.618Z,10.68
2022-10-10T13:16:31.147Z,10.35
2022-10-10T13:19:41.975Z,12.10
2022-10-10T13:22:47.061Z,12.38
2022-10-10T13:25:48.614Z,12.23
2022-10-10T13:28:51.848Z,14.63
2022-10-10T13:32:00.100Z,17.05
2022-10-10T13:35:13.111Z,12.05
2022-10-10T13:38:17.551Z,12.52
2022-10-10T13:41:21.184Z,13.75
2022-10-10T13:44:26.229Z,13.45
2022-10-10T13:47:57.533Z,13.38
2022-10-10T13:51:13.708Z,15.43
2022-10-10T13:54:48.138Z,13.37
2022-10-10T13:57:51.402Z,14.65
2022-10-10T14:01:03.028Z,13.00
2022-10-10T14:04:13.287Z,12.23
2022-10-10T14:07:24.299Z,12.82
2022-10-10T14:10:33.876Z,12.63
2022-10-10T14:13:38.888Z,11.43
2022-10-10T14:16:39.684Z,12.57
2022-10-10T14:19:42.856Z,12.35
2022-10-10T14:22:44.136Z,11.90
2022-10-10T14:25:48.805Z,13.90
2022-10-10T14:28:49.984Z,11.93
2022-10-10T14:31:50.853Z,12.85
2022-10-10T14:34:52.053Z,15.82
2022-10-10T14:37:53.062Z,14.15
2022-10-10T14:40:55.264Z,12.20
2022-10-10T14:43:55.978Z,13.63
2022-10-10T14:46:57.347Z,14.25
2022-10-10T14:49:58.981Z,24.35
2022-10-10T14:52:59.969Z,12.45
2022-10-10T14:56:01.133Z,11.13
2022-10-10T14:59:02.506Z,11.48
2022-10-10T15:02:03.423Z,10.68
2022-10-10T15:05:04.694Z,20.95
2022-10-10T15:08:07.231Z,17.60
2022-10-10T15:11:15.384Z,15.20
2022-10-10T15:14:16.441Z,13.73
2022-10-10T15:17:17.582Z,10.48
2022-10-10T15:20:18.421Z,10.82
2022-10-10T15:23:19.355Z,9.68
2022-10-10T15:26:20.012Z,11.52
2022-10-10T15:29:20.998Z,15.38
2022-10-10T15:32:21.807Z,10.30
2022-10-10T15:35:24.625Z,10.88
2022-10-10T15:38:26.805Z,11.48
2022-10-10T15:41:27.485Z,11.32
2022-10-10T15:44:28.217Z,10.95
2022-10-10T15:47:29.120Z,11.93
2022-10-10T15:50:30.382Z,15.35
2022-10-10T15:53:31.073Z,11.75
2022-10-10T15:56:32.150Z,16.92
2022-10-10T15:59:33.877Z,10.15
2022-10-10T16:02:34.557Z,17.90
2022-10-10T16:05:42.878Z,17.80
2022-10-10T16:08:45.672Z,11.65
2022-10-10T16:11:47.000Z,10.80
2022-10-10T16:14:48.028Z,18.60
2022-10-10T16:17:49.131Z,13.85
2022-10-10T16:20:49.936Z,17.85
2022-10-10T16:23:57.040Z,22.10
2022-10-10T16:26:59.760Z,11.45
2022-10-10T16:30:00.763Z,14.88
2022-10-10T16:33:01.631Z,13.68
2022-10-10T16:36:10.517Z,13.25
2022-10-10T16:39:12.915Z,11.10
2022-10-10T16:42:13.876Z,14.05
2022-10-10T16:45:14.838Z,14.70
2022-10-10T16:48:16.076Z,14.88
2022-10-10T16:51:21.161Z,13.25
2022-10-10T16:54:22.264Z,13.55
2022-10-10T16:57:23.156Z,16.02
2022-10-10T17:00:23.826Z,14.48
2022-10-10T17:03:25.337Z,11.75
2022-10-10T17:06:32.584Z,14.38
2022-10-10T17:09:36.575Z,17.63
2022-10-10T17:12:37.545Z,14.02
2022-10-10T17:15:42.232Z,11.98
2022-10-10T17:18:44.024Z,17.65
2022-10-10T17:21:44.721Z,23.85
2022-10-10T17:24:45.494Z,12.82
2022-10-10T17:27:46.232Z,17.33
2022-10-10T17:30:50.511Z,12.40
2022-10-10T17:33:54.547Z,13.52
2022-10-10T17:36:55.922Z,16.10
2022-10-10T17:39:56.765Z,15.07
2022-10-10T17:43:00.432Z,15.10
2022-10-10T17:46:32.740Z,14.73
2022-10-10T17:49:30.046Z,15.13
2022-10-10T17:52:31.960Z,12.73
2022-10-10T17:55:33.163Z,18.50
2022-10-10T17:58:34.038Z,13.43
2022-10-10T18:01:36.923Z,15.75
2022-10-10T18:04:37.964Z,12.40
2022-10-10T18:07:38.844Z,18.50
2022-10-10T18:10:41.320Z,12.25
2022-10-10T18:13:42.762Z,15.75
2022-10-10T18:16:45.194Z,24.20
2022-10-10T18:19:47.556Z,14.20
2022-10-10T18:22:48.188Z,16.55
2022-10-10T18:25:48.947Z,14.60
2022-10-10T18:28:52.793Z,12.98
2022-10-10T18:31:54.368Z,11.93
2022-10-10T18:34:55.303Z,14.50
2022-10-10T18:37:56.502Z,16.08
2022-10-10T18:41:05.979Z,12.98
2022-10-10T18:44:12.150Z,12.32
2022-10-10T18:47:13.352Z,11.35
2022-10-10T18:50:14.241Z,28.65
2022-10-10T18:53:15.000Z,13.20
2022-10-10T18:56:21.266Z,13.48
2022-10-10T18:59:22.337Z,15.48
2022-10-10T19:02:23.481Z,14.27
2022-10-10T19:05:24.608Z,15.73
2022-10-10T19:08:25.600Z,17.45
2022-10-10T19:11:34.266Z,19.48
2022-10-10T19:14:35.395Z,17.85
2022-10-10T19:17:36.031Z,16.95
2022-10-10T19:20:39.315Z,17.55
2022-10-10T19:23:40.310Z,21.42
2022-10-10T19:26:43.774Z,20.83
2022-10-10T19:29:44.551Z,20.95
2022-10-10T19:36:09.668Z,21.58
2022-10-10T19:39:10.600Z,30.02
2022-10-10T19:42:11.497Z,35.58
2022-10-10T19:45:12.381Z,24.80
2022-10-10T19:48:15.286Z,24.85
2022-10-10T19:51:20.133Z,24.00
2022-10-10T19:54:21.149Z,22.65
2022-10-10T19:57:22.351Z,28.42
2022-10-10T20:00:23.690Z,14.68
2022-10-10T20:03:24.810Z,25.38
2022-10-10T20:06:26.482Z,15.07
2022-10-10T20:09:29.423Z,17.17
2022-10-10T20:12:30.717Z,11.55
2022-10-10T20:15:31.747Z,13.93
2022-10-10T20:18:40.220Z,13.95
2022-10-10T20:21:41.526Z,16.13
2022-10-10T20:24:42.633Z,14.25
2022-10-10T20:27:43.955Z,19.50
2022-10-10T20:30:48.685Z,15.48
2022-10-10T20:33:53.298Z,16.05
2022-10-10T20:36:54.230Z,15.57
2022-10-10T20:39:54.944Z,12.32
2022-10-10T20:42:55.760Z,10.27
2022-10-10T20:45:56.794Z,15.32
2022-10-10T20:49:00.321Z,9.80
2022-10-10T20:52:01.123Z,8.75
2022-10-10T20:55:01.993Z,9.55
2022-10-10T20:58:02.926Z,10.45
2022-10-10T21:01:17.914Z,10.40
2022-10-10T21:04:18.970Z,8.52
2022-10-10T21:07:20.253Z,9.88
2022-10-10T21:10:20.854Z,9.85
2022-10-10T21:13:21.553Z,13.07
2022-10-10T21:16:26.174Z,11.60
2022-10-10T21:19:26.753Z,11.88
2022-10-10T21:22:28.005Z,15.77
2022-10-10T21:25:28.901Z,8.40
2022-10-10T21:28:29.764Z,12.35
2022-10-10T21:31:35.862Z,8.50
2022-10-10T21:34:37.177Z,9.13
2022-10-10T21:37:38.226Z,10.13
2022-10-10T21:40:39.686Z,14.48
2022-10-10T21:43:44.782Z,10.05
2022-10-10T21:46:45.624Z,12.13
2022-10-10T21:49:46.202Z,10.25
2022-10-10T21:52:46.748Z,12.18
2022-10-10T21:55:47.440Z,11.25
2022-10-10T21:58:48.362Z,14.27
2022-10-10T22:01:49.276Z,12.68
2022-10-10T22:04:51.522Z,11.82
2022-10-10T22:07:52.345Z,11.60
2022-10-10T22:10:53.159Z,12.32
2022-10-10T22:13:54.472Z,13.65
2022-10-10T22:16:55.189Z,12.93
2022-10-10T22:19:56.179Z,9.55
2022-10-10T22:22:57.370Z,11.27
2022-10-10T22:25:58.904Z,8.50
2022-10-10T22:28:59.811Z,9.07
2022-10-10T22:32:00.630Z,9.95
2022-10-10T22:35:02.031Z,11.57
2022-10-10T22:38:03.599Z,11.18
2022-10-10T22:41:04.741Z,13.23
2022-10-10T22:44:05.783Z,13.52
2022-10-10T22:47:06.798Z,15.27
2022-10-10T22:50:08.867Z,16.45
2022-10-10T22:53:09.583Z,13.05
2022-10-10T22:56:15.397Z,12.80
2022-10-10T22:59:16.287Z,16.25
2022-10-10T23:02:17.158Z,11.18
2022-10-10T23:05:17.818Z,13.07
2022-10-10T23:08:18.423Z,15.23
2022-10-10T23:11:19.298Z,18.02
2022-10-10T23:14:20.027Z,13.90
2022-10-10T23:17:20.753Z,12.32
2022-10-10T23:20:22.020Z,15.18
2022-10-10T23:23:22.542Z,16.52
2022-10-10T23:26:23.442Z,11.73
2022-10-10T23:29:24.714Z,14.65
2022-10-10T23:32:29.385Z,15.27
2022-10-10T23:35:30.396Z,23.60
2022-10-10T23:38:31.267Z,21.42
2022-10-10T23:41:32.080Z,27.73
2022-10-10T23:44:32.808Z,27.77
2022-10-10T23:47:33.648Z,33.65
2022-10-10T23:50:35.000Z,36.13
2022-10-10T23:53:36.809Z,31.88
2022-10-10T23:56:38.119Z,34.25
2022-10-10T23:59:38.985Z,34.58
